Time;durP1;ratioP1;P1;durP2;ratioP2;P2;SDS_P1;SDS_P2;PMS_P1;PMS_P2;Temp;Humidity;BMP_temperature;BMP_pressure;BME280_temperature;BME280_humidity;BME280_pressure;Samples;Min_cycle;Max_cycle;Signal;HPM_P1;HPM_P2
2023/03/31 00:01:12;;;;;;;22.50;11.40;;;;;;;6.05;66.36;98273.71;105435;1264;97924;-69
2023/03/31 00:03:42;;;;;;;23.20;11.40;;;;;;;6.06;66.55;98273.79;105535;1255;96558;-71
2023/03/31 00:06:16;;;;;;;23.80;11.60;;;;;;;6.08;66.61;98273.52;105201;1264;109603;-69
2023/03/31 00:08:50;;;;;;;21.10;11.00;;;;;;;6.09;66.48;98273.77;105357;1257;102185;-70
2023/03/31 00:11:21;;;;;;;20.50;10.60;;;;;;;6.11;66.66;98275.40;105331;1264;107581;-69
2023/03/31 00:13:49;;;;;;;19.40;10.40;;;;;;;6.14;66.58;98276.13;105290;1255;97985;-70
2023/03/31 00:16:18;;;;;;;20.20;9.50;;;;;;;6.14;66.63;98269.25;105366;1264;97007;-70
2023/03/31 00:18:49;;;;;;;19.50;9.60;;;;;;;6.15;67.08;98268.45;105506;1254;110059;-69
2023/03/31 00:21:32;;;;;;;21.20;9.00;;;;;;;6.16;66.95;98268.92;105532;1255;102228;-70
2023/03/31 00:24:07;;;;;;;20.60;10.20;;;;;;;6.18;66.85;98267.73;105337;1256;107309;-70
2023/03/31 00:26:37;;;;;;;20.90;10.30;;;;;;;6.18;67.17;98262.26;105507;1257;96666;-70
2023/03/31 00:29:07;;;;;;;19.40;10.50;;;;;;;6.19;66.92;98255.52;105476;1256;97108;-72
2023/03/31 00:31:35;;;;;;;20.90;10.00;;;;;;;6.19;66.97;98251.98;105284;1257;109878;-70
2023/03/31 00:34:04;;;;;;;19.20;9.10;;;;;;;6.20;66.74;98255.98;105395;1264;102191;-70
2023/03/31 00:36:35;;;;;;;19.80;10.00;;;;;;;6.22;67.15;98259.73;105661;1251;107374;-69
2023/03/31 00:39:08;;;;;;;19.30;9.80;;;;;;;6.22;67.09;98258.98;105337;1254;96588;-70
2023/03/31 00:41:37;;;;;;;21.80;9.50;;;;;;;6.24;67.01;98248.50;105265;1258;97090;-70
2023/03/31 00:44:23;;;;;;;19.30;9.30;;;;;;;6.24;67.39;98248.32;105326;1257;109942;-70
2023/03/31 00:47:10;;;;;;;22.80;10.60;;;;;;;6.25;67.43;98246.33;105352;1257;102219;-70
2023/03/31 00:49:43;;;;;;;21.00;10.40;;;;;;;6.25;67.55;98243.99;105286;1269;107618;-70
2023/03/31 00:52:17;;;;;;;;;;;;;;;6.25;67.13;98252.82;105624;1263;96563;-70
2023/03/31 00:54:48;;;;;;;16.10;7.40;;;;;;;6.24;67.42;98249.86;105509;1264;97806;-70
2023/03/31 00:57:16;;;;;;;21.10;10.30;;;;;;;6.26;67.69;98243.80;105660;1255;109770;-70
2023/03/31 00:59:57;;;;;;;20.20;9.90;;;;;;;6.27;67.92;98244.60;105658;1254;101518;-71
2023/03/31 01:02:27;;;;;;;20.80;9.70;;;;;;;6.28;67.57;98241.55;105382;1264;107601;-71
2023/03/31 01:05:00;;;;;;;19.60;9.60;;;;;;;6.30;67.52;98240.02;105396;1255;97820;-70
2023/03/31 01:07:38;;;;;;;;;;;;;;;6.31;67.54;98240.68;105331;1256;97898;-69
2023/03/31 01:10:07;;;;;;;19.10;9.00;;;;;;;6.31;67.91;98235.91;105238;1262;109485;-69
2023/03/31 01:12:41;;;;;;;18.40;8.40;;;;;;;6.33;67.79;98234.00;105475;1274;100820;-71
2023/03/31 01:15:09;;;;;;;20.80;10.30;;;;;;;6.34;67.79;98230.36;105364;1257;107624;-69
2023/03/31 01:17:39;;;;;;;20.00;9.40;;;;;;;6.37;67.77;98229.67;105366;1264;97534;-69
2023/03/31 01:20:20;;;;;;;20.50;10.10;;;;;;;6.39;67.57;98231.27;105345;1266;97105;-70
2023/03/31 01:23:07;;;;;;;20.40;10.20;;;;;;;6.41;67.82;98228.14;105231;1251;109876;-70
2023/03/31 01:25:50;;;;;;;17.70;9.50;;;;;;;6.42;68.28;98225.82;105582;1251;101578;-73
2023/03/31 01:28:32;;;;;;;20.50;9.40;;;;;;;6.41;67.88;98231.50;105487;1267;107317;-69
2023/03/31 01:31:38;;;;;;;21.10;9.40;;;;;;;6.42;68.03;98222.48;105550;1254;97811;-70
2023/03/31 01:34:28;;;;;;;20.40;9.70;;;;;;;6.43;67.93;98227.66;105258;1257;97071;-70
2023/03/31 01:37:17;;;;;;;20.70;9.90;;;;;;;6.44;68.05;98227.93;105803;1251;109863;-70
2023/03/31 01:40:07;;;;;;;21.00;9.60;;;;;;;6.45;67.90;98220.13;105308;1254;102348;-69
2023/03/31 01:42:45;;;;;;;19.10;10.40;;;;;;;6.46;68.12;98212.33;105368;1264;107575;-70
2023/03/31 01:45:26;;;;;;;19.20;9.80;;;;;;;6.47;68.01;98218.27;105584;1254;96557;-70
2023/03/31 01:48:11;;;;;;;18.60;9.20;;;;;;;6.47;67.98;98223.68;105398;1254;97086;-69
2023/03/31 01:51:05;;;;;;;17.70;8.80;;;;;;;6.48;68.11;98219.58;105249;1264;109955;-69
2023/03/31 01:53:44;;;;;;;19.00;9.30;;;;;;;6.50;67.91;98228.46;105412;1260;101914;-70
2023/03/31 01:56:37;;;;;;;19.80;9.10;;;;;;;6.50;67.94;98226.64;105412;1251;107384;-69
2023/03/31 01:59:16;;;;;;;19.60;9.80;;;;;;;6.51;68.16;98224.10;105270;1264;96583;-69
2023/03/31 02:01:55;;;;;;;18.40;9.20;;;;;;;6.52;68.14;98228.23;105238;1265;97108;-69
2023/03/31 02:04:41;;;;;;;19.90;9.30;;;;;;;6.54;68.22;98229.00;105587;1255;109882;-71
2023/03/31 02:07:16;;;;;;;17.00;8.40;;;;;;;6.55;68.32;98227.15;105412;1255;102357;-74
2023/03/31 02:09:50;;;;;;;21.20;9.20;;;;;;;6.57;68.44;98226.35;105349;1264;107616;-70
2023/03/31 02:12:21;;;;;;;20.10;9.20;;;;;;;6.58;68.36;98229.31;105399;1263;96670;-70
2023/03/31 02:14:53;;;;;;;19.60;9.80;;;;;;;6.58;68.55;98226.98;105505;1254;96603;-70
2023/03/31 02:17:29;;;;;;;18.60;9.40;;;;;;;6.59;68.38;98225.19;105489;1261;109338;-69
2023/03/31 02:20:04;;;;;;;19.40;9.50;;;;;;;6.59;68.38;98228.85;105413;1274;102412;-70
2023/03/31 02:22:36;;;;;;;22.00;9.40;;;;;;;6.61;68.35;98224.54;105359;1259;108073;-70
2023/03/31 02:25:09;;;;;;;18.70;9.50;;;;;;;6.60;68.45;98223.84;105493;1257;96597;-69
2023/03/31 02:27:42;;;;;;;20.60;10.30;;;;;;;6.60;68.30;98223.84;105388;1254;97914;-70
2023/03/31 02:30:12;;;;;;;19.70;9.30;;;;;;;6.61;68.34;98226.45;105298;1257;110030;-70
2023/03/31 02:32:42;;;;;;;17.80;9.10;;;;;;;6.61;68.54;98226.27;105433;1255;103448;-70
2023/03/31 02:35:21;;;;;;;20.20;9.40;;;;;;;6.62;68.46;98225.11;105381;1265;107615;-71
2023/03/31 02:37:49;;;;;;;20.60;9.80;;;;;;;6.63;68.52;98225.61;105408;1254;96596;-70
2023/03/31 02:40:20;;;;;;;19.80;9.60;;;;;;;6.63;68.60;98222.59;105335;1254;97845;-70
2023/03/31 02:42:49;;;;;;;20.40;9.70;;;;;;;6.64;68.88;98224.64;105423;1255;109888;-69
2023/03/31 02:45:36;;;;;;;19.40;9.80;;;;;;;6.64;68.79;98225.89;105366;1254;102222;-70
2023/03/31 02:48:08;;;;;;;21.00;10.70;;;;;;;6.64;68.83;98231.28;105338;1256;107362;-69
2023/03/31 02:51:02;;;;;;;22.80;10.20;;;;;;;6.64;68.72;98230.09;105274;1256;97982;-70
2023/03/31 02:53:57;;;;;;;20.00;10.10;;;;;;;6.63;68.75;98229.63;105235;1251;96581;-69
2023/03/31 02:56:59;;;;;;;20.30;10.10;;;;;;;6.62;68.62;98224.06;105245;1257;109980;-69
2023/03/31 02:59:45;;;;;;;21.30;10.60;;;;;;;6.61;68.90;98226.98;105292;1258;102256;-70
2023/03/31 03:02:31;;;;;;;19.80;10.50;;;;;;;6.60;68.76;98226.86;105279;1264;107716;-69
2023/03/31 03:05:26;;;;;;;20.40;10.30;;;;;;;6.60;68.83;98226.16;105441;1254;97212;-71
2023/03/31 03:07:59;;;;;;;19.80;10.40;;;;;;;6.59;68.95;98228.48;105209;1254;97099;-70
2023/03/31 03:10:38;;;;;;;22.30;10.70;;;;;;;6.60;69.04;98220.54;105411;1254;109607;-69
2023/03/31 03:13:14;;;;;;;24.70;12.30;;;;;;;6.60;68.83;98217.89;105328;1251;102196;-73
2023/03/31 03:15:49;;;;;;;20.50;10.30;;;;;;;6.60;69.20;98214.73;105328;1267;107603;-73
2023/03/31 03:18:17;;;;;;;22.80;11.40;;;;;;;6.61;69.13;98214.50;105400;1254;97400;-70
2023/03/31 03:20:48;;;;;;;23.00;11.00;;;;;;;6.60;69.04;98214.14;105410;1254;96997;-70
2023/03/31 03:23:16;;;;;;;21.60;11.10;;;;;;;6.61;68.92;98210.95;105462;1254;109353;-70
2023/03/31 03:25:45;;;;;;;21.70;11.60;;;;;;;6.61;69.10;98210.04;105451;1255;102218;-69
2023/03/31 03:28:13;;;;;;;21.00;11.90;;;;;;;6.62;69.15;98205.20;105414;1256;106105;-70
2023/03/31 03:30:41;;;;;;;20.90;10.80;;;;;;;6.62;69.08;98204.33;105422;1254;97889;-69
2023/03/31 03:33:15;;;;;;;21.90;11.30;;;;;;;6.62;69.38;98200.80;108832;1251;94520;-71
2023/03/31 03:35:44;;;;;;;20.20;10.50;;;;;;;6.62;69.23;98201.54;106262;1254;109899;-69
2023/03/31 03:38:12;;;;;;;22.40;10.50;;;;;;;6.61;69.15;98203.88;105446;1254;102192;-69
2023/03/31 03:40:40;;;;;;;21.40;11.20;;;;;;;6.60;69.19;98211.17;105487;1264;107425;-70
2023/03/31 03:43:08;;;;;;;21.70;11.00;;;;;;;6.59;69.16;98209.15;105424;1251;96593;-68
2023/03/31 03:45:36;;;;;;;22.40;11.70;;;;;;;6.58;69.27;98207.96;105664;1251;97095;-69
2023/03/31 03:48:04;;;;;;;23.10;12.00;;;;;;;6.58;69.43;98210.44;105238;1264;109552;-69
2023/03/31 03:50:35;;;;;;;22.40;11.20;;;;;;;6.58;69.31;98211.50;105322;1252;220540;-72
2023/03/31 03:53:03;;;;;;;22.40;12.20;;;;;;;6.58;69.46;98215.52;105420;1255;106634;-73
2023/03/31 03:55:31;;;;;;;22.60;11.80;;;;;;;6.59;69.47;98213.56;105568;1254;96657;-69
2023/03/31 03:57:59;;;;;;;22.10;11.20;;;;;;;6.59;69.42;98215.80;105569;1254;97078;-70
2023/03/31 04:00:27;;;;;;;21.90;11.90;;;;;;;6.59;69.59;98213.85;105254;1255;109893;-70
2023/03/31 04:02:55;;;;;;;22.70;11.70;;;;;;;6.60;69.45;98215.95;105193;1274;102421;-73
2023/03/31 04:05:23;;;;;;;21.00;11.30;;;;;;;6.59;69.46;98217.23;105480;1251;107596;-70
2023/03/31 04:07:51;;;;;;;21.60;12.00;;;;;;;6.59;69.52;98214.95;105463;1255;96641;-70
2023/03/31 04:10:19;;;;;;;21.80;11.80;;;;;;;6.58;69.65;98214.47;105464;1255;98014;-70
2023/03/31 04:12:47;;;;;;;22.80;12.40;;;;;;;6.59;69.62;98218.35;105268;1264;109472;-69
2023/03/31 04:15:15;;;;;;;25.10;12.90;;;;;;;6.59;69.54;98219.50;105546;1251;101965;-74
2023/03/31 04:17:49;;;;;;;21.50;11.40;;;;;;;6.61;69.59;98219.59;105437;1265;107252;-70
2023/03/31 04:20:18;;;;;;;23.70;11.80;;;;;;;6.62;69.57;98214.01;105349;1251;96607;-70
2023/03/31 04:22:49;;;;;;;24.40;12.30;;;;;;;6.63;69.69;98212.19;105387;1254;97924;-71
2023/03/31 04:25:17;;;;;;;24.70;13.50;;;;;;;6.63;69.65;98210.21;105579;1254;109889;-70
2023/03/31 04:27:53;;;;;;;23.70;13.30;;;;;;;6.65;69.74;98213.98;105540;1254;102164;-72
2023/03/31 04:30:23;;;;;;;23.60;12.40;;;;;;;6.67;69.94;98214.53;105418;1251;107430;-69
2023/03/31 04:32:59;;;;;;;22.80;11.90;;;;;;;6.69;69.78;98213.67;105231;1274;96570;-70
2023/03/31 04:35:51;;;;;;;22.70;13.20;;;;;;;6.73;69.99;98215.23;105540;1251;96634;-70
2023/03/31 04:38:20;;;;;;;22.30;11.30;;;;;;;6.76;69.99;98209.34;105227;1257;108898;-70
2023/03/31 04:40:50;;;;;;;26.90;12.90;;;;;;;6.79;69.93;98206.84;105447;1257;101923;-70
2023/03/31 04:43:20;;;;;;;24.40;12.40;;;;;;;6.81;70.04;98203.67;105821;1254;108201;-70
2023/03/31 04:45:47;;;;;;;23.90;12.40;;;;;;;6.85;69.97;98203.96;105690;1257;96706;-70
2023/03/31 04:48:16;;;;;;;22.40;11.60;;;;;;;6.88;70.00;98199.38;108870;1250;95078;-68
2023/03/31 04:50:45;;;;;;;24.30;12.80;;;;;;;6.91;69.95;98199.32;108913;1250;109895;-67
2023/03/31 04:53:13;;;;;;;25.00;12.30;;;;;;;6.95;70.06;98204.49;105765;1254;101897;-69
2023/03/31 04:55:41;;;;;;;23.80;12.20;;;;;;;6.98;70.04;98208.27;105661;1254;107616;-69
2023/03/31 04:58:09;;;;;;;23.90;12.30;;;;;;;7.02;70.00;98208.21;105625;1254;96904;-70
2023/03/31 05:00:37;;;;;;;21.70;11.40;;;;;;;7.06;70.12;98208.48;105496;1251;97545;-69
2023/03/31 05:03:05;;;;;;;21.60;11.70;;;;;;;7.09;70.19;98208.98;105221;1264;109928;-69
2023/03/31 05:05:33;;;;;;;23.50;12.20;;;;;;;7.12;70.13;98206.81;105547;1254;102446;-72
2023/03/31 05:08:02;;;;;;;22.70;12.60;;;;;;;7.14;70.22;98203.83;105475;1257;107653;-70
2023/03/31 05:10:30;;;;;;;24.00;11.80;;;;;;;7.17;70.21;98204.35;105287;1251;97909;-70
2023/03/31 05:12:58;;;;;;;21.90;11.60;;;;;;;7.19;70.12;98209.13;105549;1254;98049;-70
2023/03/31 05:15:26;;;;;;;20.40;10.30;;;;;;;7.22;70.29;98205.03;105609;1251;109674;-70
2023/03/31 05:17:54;;;;;;;21.10;11.20;;;;;;;7.25;70.31;98203.95;105520;1260;102219;-69
2023/03/31 05:20:23;;;;;;;22.70;11.10;;;;;;;7.27;70.33;98203.61;105452;1251;108326;-70
2023/03/31 05:22:50;;;;;;;22.40;11.00;;;;;;;7.29;70.38;98200.98;105507;1254;96628;-69
2023/03/31 05:25:18;;;;;;;21.60;11.50;;;;;;;7.32;70.34;98199.21;105552;1250;97894;-70
2023/03/31 05:27:46;;;;;;;23.80;12.50;;;;;;;7.35;70.43;98187.67;105538;1251;109883;-71
2023/03/31 05:30:16;;;;;;;22.90;11.80;;;;;;;7.39;70.37;98190.60;105347;1256;102248;-74
2023/03/31 05:32:44;;;;;;;21.70;11.80;;;;;;;7.41;70.46;98192.34;105451;1256;107703;-71
2023/03/31 05:35:12;;;;;;;22.80;12.10;;;;;;;7.45;70.45;98185.20;105496;1251;96995;-69
2023/03/31 05:37:40;;;;;;;23.90;12.20;;;;;;;7.48;70.49;98186.77;105480;1254;96603;-72
2023/03/31 05:40:09;;;;;;;21.00;11.20;;;;;;;7.53;70.51;98187.43;105533;1254;110618;-69
2023/03/31 05:42:37;;;;;;;24.10;11.30;;;;;;;7.57;70.54;98187.27;105516;1264;102188;-69
2023/03/31 05:45:06;;;;;;;20.80;11.10;;;;;;;7.62;70.47;98187.10;105560;1254;107612;-71
2023/03/31 05:47:36;;;;;;;21.70;11.60;;;;;;;7.67;70.56;98188.14;105504;1257;96685;-68
2023/03/31 05:50:07;;;;;;;21.40;11.30;;;;;;;7.72;70.49;98182.52;105324;1254;97026;-69
2023/03/31 05:52:35;;;;;;;23.20;12.00;;;;;;;7.76;70.55;98181.81;105406;1251;109879;-69
2023/03/31 05:55:04;;;;;;;23.10;11.30;;;;;;;7.81;70.61;98185.17;105278;1273;101913;-69
2023/03/31 05:57:31;;;;;;;21.40;11.10;;;;;;;7.85;70.64;98186.96;105463;1256;107437;-69
2023/03/31 05:59:59;;;;;;;24.30;12.10;;;;;;;7.91;70.71;98186.70;105450;1254;97922;-69
2023/03/31 06:02:27;;;;;;;23.30;11.30;;;;;;;8.00;70.62;98184.98;105638;1251;96497;-69
2023/03/31 06:04:56;;;;;;;21.80;10.80;;;;;;;8.10;70.68;98183.71;105817;1251;110335;-70
2023/03/31 06:07:25;;;;;;;22.40;11.20;;;;;;;8.22;70.78;98178.95;105893;1250;100666;-70
2023/03/31 06:09:53;;;;;;;23.40;12.00;;;;;;;8.32;70.86;98178.86;105486;1254;107644;-68
2023/03/31 06:12:20;;;;;;;22.70;12.20;;;;;;;8.41;70.64;98183.27;105651;1255;97031;-69
2023/03/31 06:14:48;;;;;;;24.80;11.50;;;;;;;8.48;70.65;98187.33;105711;1254;96987;-69
2023/03/31 06:17:16;;;;;;;21.20;11.50;;;;;;;8.55;70.81;98185.22;105539;1254;109481;-70
2023/03/31 06:19:44;;;;;;;22.50;11.00;;;;;;;8.65;70.74;98181.75;105543;1254;102192;-70
2023/03/31 06:22:13;;;;;;;20.90;10.60;;;;;;;8.76;70.80;98180.54;105627;1265;107630;-69
2023/03/31 06:24:41;;;;;;;20.20;9.70;;;;;;;8.85;70.83;98183.55;105528;1254;97890;-71
2023/03/31 06:27:09;;;;;;;21.10;10.00;;;;;;;8.93;70.84;98180.29;105549;1256;97082;-69
2023/03/31 06:29:36;;;;;;;25.20;12.70;;;;;;;8.99;70.73;98180.67;105622;1251;109949;-70
2023/03/31 06:32:04;;;;;;;22.10;12.70;;;;;;;9.06;70.82;98176.98;105320;1254;101825;-69
2023/03/31 06:34:33;;;;;;;22.10;11.10;;;;;;;9.14;70.89;98179.16;105587;1254;107596;-69
2023/03/31 06:37:02;;;;;;;19.20;10.20;;;;;;;9.23;70.81;98183.57;105812;1254;97839;-70
2023/03/31 06:39:30;;;;;;;22.80;10.50;;;;;;;9.32;70.71;98184.10;105389;1254;97347;-70
2023/03/31 06:41:58;;;;;;;18.50;9.70;;;;;;;9.39;70.88;98177.48;105296;1257;110108;-69
2023/03/31 06:44:26;;;;;;;21.00;9.30;;;;;;;9.45;70.77;98179.66;105600;1250;102189;-70
2023/03/31 06:46:53;;;;;;;21.60;9.60;;;;;;;9.50;70.78;98178.85;105457;1263;107595;-69
2023/03/31 06:49:22;;;;;;;18.10;9.20;;;;;;;9.58;70.76;98176.26;105224;1257;97922;-68
2023/03/31 06:51:51;;;;;;;21.20;8.80;;;;;;;9.67;70.77;98178.19;105581;1251;98040;-68
2023/03/31 06:54:19;;;;;;;17.70;9.20;;;;;;;9.75;70.79;98175.10;105671;1254;110060;-69
2023/03/31 06:56:47;;;;;;;18.00;8.80;;;;;;;9.82;70.84;98171.45;105305;1264;102027;-69
2023/03/31 06:59:15;;;;;;;19.50;9.80;;;;;;;9.91;70.76;98175.02;105540;1254;105934;-70
2023/03/31 07:01:44;;;;;;;21.60;10.50;;;;;;;9.98;70.89;98173.83;105286;1257;96626;-69
2023/03/31 07:04:13;;;;;;;20.40;9.40;;;;;;;10.10;70.84;98173.77;105212;1254;98395;-69
2023/03/31 07:06:41;;;;;;;19.80;9.50;;;;;;;10.17;70.73;98173.31;105388;1254;109380;-69
2023/03/31 07:09:09;;;;;;;18.80;9.30;;;;;;;10.20;70.76;98171.44;105394;1257;102278;-70
2023/03/31 07:11:37;;;;;;;17.80;8.10;;;;;;;10.24;70.75;98170.95;105476;1254;105920;-69
2023/03/31 07:14:05;;;;;;;18.50;8.60;;;;;;;10.23;70.62;98174.42;105656;1254;97951;-69
2023/03/31 07:16:33;;;;;;;20.30;9.20;;;;;;;10.17;70.56;98173.74;105286;1254;97070;-68
2023/03/31 07:19:03;;;;;;;20.30;9.70;;;;;;;10.10;70.54;98175.33;105438;1250;109906;-69
2023/03/31 07:21:31;;;;;;;19.40;9.40;;;;;;;10.02;70.44;98171.61;105284;1255;102281;-73
2023/03/31 07:23:59;;;;;;;17.10;8.30;;;;;;;9.95;70.62;98173.36;105575;1251;107578;-69
2023/03/31 07:26:27;;;;;;;17.90;7.90;;;;;;;10.04;70.86;98174.08;105339;1257;97063;-69
2023/03/31 07:28:56;;;;;;;23.10;10.10;;;;;;;10.25;70.99;98171.99;105545;1250;97768;-69
2023/03/31 07:31:25;;;;;;;28.10;12.00;;;;;;;10.43;70.86;98172.88;105433;1255;109921;-69
2023/03/31 07:33:53;;;;;;;21.30;9.40;;;;;;;10.65;70.85;98175.48;105416;1254;101956;-70
2023/03/31 07:36:22;;;;;;;21.70;9.50;;;;;;;10.79;70.77;98167.73;105614;1274;107034;-69
2023/03/31 07:38:50;;;;;;;19.10;8.10;;;;;;;10.84;70.69;98167.73;105514;1251;97902;-71
2023/03/31 07:41:19;;;;;;;20.90;8.50;;;;;;;10.89;70.68;98162.23;105252;1257;98390;-70
2023/03/31 07:43:49;;;;;;;23.10;9.90;;;;;;;10.98;70.58;98158.63;105398;1255;109497;-69
2023/03/31 07:46:23;;;;;;;20.40;8.30;;;;;;;11.06;70.63;98158.44;105454;1264;102141;-70
2023/03/31 07:48:53;;;;;;;19.60;8.40;;;;;;;11.12;70.74;98158.41;105406;1254;107575;-68
2023/03/31 07:51:24;;;;;;;18.70;8.50;;;;;;;11.21;70.70;98156.39;105397;1267;97807;-70
2023/03/31 07:53:52;;;;;;;20.00;8.80;;;;;;;11.28;70.64;98153.59;105423;1254;97400;-69
2023/03/31 07:56:24;;;;;;;18.70;8.50;;;;;;;11.34;70.54;98148.08;105503;1254;109462;-69
2023/03/31 07:58:52;;;;;;;22.60;8.80;;;;;;;11.43;70.51;98150.52;105444;1254;102211;-68
2023/03/31 08:01:24;;;;;;;21.20;9.20;;;;;;;11.52;70.41;98146.51;105542;1265;107685;-68
2023/03/31 08:03:54;;;;;;;25.10;10.30;;;;;;;11.65;70.48;98147.77;105676;1257;96612;-68
2023/03/31 08:06:24;;;;;;;22.10;9.30;;;;;;;11.86;70.61;98146.56;105670;1254;97804;-68
2023/03/31 08:08:52;;;;;;;19.20;8.40;;;;;;;12.10;70.65;98140.68;105545;1250;109245;-69
2023/03/31 08:11:20;;;;;;;19.20;8.60;;;;;;;12.31;70.52;98138.48;105596;1254;102273;-70
2023/03/31 08:13:49;;;;;;;19.60;9.10;;;;;;;12.54;70.52;98138.31;105446;1273;107617;-73
2023/03/31 08:16:17;;;;;;;20.60;9.30;;;;;;;12.70;70.39;98132.85;105665;1251;96596;-70
2023/03/31 08:18:46;;;;;;;19.90;8.30;;;;;;;12.76;70.26;98128.71;105588;1250;97072;-68
2023/03/31 08:21:14;;;;;;;20.10;9.20;;;;;;;12.76;70.19;98128.39;105646;1250;109955;-69
2023/03/31 08:23:41;;;;;;;17.10;7.80;;;;;;;12.78;70.20;98129.58;105282;1268;102095;-69
2023/03/31 08:26:12;;;;;;;14.30;6.30;;;;;;;12.85;70.19;98128.75;105386;1254;107615;-68
2023/03/31 08:28:47;;;;;;;17.90;7.60;;;;;;;12.95;70.08;98127.48;105401;1250;96713;-72
2023/03/31 08:31:18;;;;;;;16.40;7.00;;;;;;;13.01;70.13;98123.99;105473;1254;96600;-69
2023/03/31 08:33:46;;;;;;;19.50;7.50;;;;;;;13.07;70.01;98124.43;105526;1251;109902;-69
2023/03/31 08:36:15;;;;;;;15.30;6.50;;;;;;;13.18;70.06;98121.35;105589;1257;102387;-69
2023/03/31 08:38:48;;;;;;;12.20;5.70;;;;;;;13.35;70.03;98115.58;105195;1257;107381;-74
2023/03/31 08:41:42;;;;;;;15.60;6.70;;;;;;;13.49;69.90;98115.13;105472;1250;96593;-69
2023/03/31 08:44:16;;;;;;;16.40;6.90;;;;;;;13.46;69.80;98109.83;105458;1254;96657;-69
2023/03/31 08:46:45;;;;;;;17.90;7.10;;;;;;;13.43;69.69;98109.81;105481;1250;109941;-69
2023/03/31 08:49:17;;;;;;;16.10;6.90;;;;;;;13.41;69.59;98105.49;105375;1254;101871;-70
2023/03/31 08:51:50;;;;;;;15.80;6.70;;;;;;;13.39;69.76;98101.56;105404;1262;106803;-69
2023/03/31 08:54:24;;;;;;;16.10;5.90;;;;;;;13.42;69.29;98105.61;105421;1254;97547;-69
2023/03/31 08:56:52;;;;;;;16.10;6.20;;;;;;;13.40;69.51;98101.55;105361;1257;96628;-70
2023/03/31 08:59:33;;;;;;;17.60;6.80;;;;;;;13.38;69.27;98096.48;105440;1251;109887;-69
2023/03/31 09:02:17;;;;;;;18.90;6.50;;;;;;;13.40;69.33;98097.77;105294;1266;101860;-69
2023/03/31 09:04:55;;;;;;;14.20;6.00;;;;;;;13.40;69.31;98093.49;105218;1254;106315;-70
2023/03/31 09:07:45;;;;;;;14.60;6.20;;;;;;;13.42;69.24;98090.88;105453;1256;96622;-69
2023/03/31 09:10:49;;;;;;;14.00;6.00;;;;;;;13.49;69.24;98087.28;105362;1254;97102;-68
2023/03/31 09:13:17;;;;;;;;;;;;;;;13.69;69.15;98078.72;105386;1253;109352;-69
2023/03/31 09:15:57;;;;;;;11.00;5.10;;;;;;;13.81;69.22;98079.27;105548;1254;102438;-69
2023/03/31 09:18:37;;;;;;;12.90;5.90;;;;;;;13.91;69.08;98074.39;105444;1254;107184;-69
2023/03/31 09:21:30;;;;;;;15.90;5.90;;;;;;;14.04;68.96;98067.33;105377;1254;97398;-68
2023/03/31 09:24:07;;;;;;;13.40;5.60;;;;;;;14.18;69.00;98064.41;105384;1253;96657;-69
2023/03/31 09:26:51;;;;;;;13.30;5.90;;;;;;;14.21;68.82;98062.59;105277;1255;108858;-70
2023/03/31 09:29:36;;;;;;;13.80;4.80;;;;;;;14.28;68.48;98062.65;105343;1255;102194;-69
2023/03/31 09:32:19;;;;;;;14.40;4.80;;;;;;;14.35;68.35;98056.23;105465;1254;106162;-70
2023/03/31 09:34:53;;;;;;;13.20;4.50;;;;;;;14.41;67.96;98053.38;105358;1254;97813;-69
2023/03/31 09:37:21;;;;;;;;;;;;;;;14.49;68.33;98047.39;105477;1254;96654;-69
2023/03/31 09:39:50;;;;;;;13.80;4.00;;;;;;;14.55;68.24;98047.91;105481;1250;109644;-70
2023/03/31 09:42:18;;;;;;;10.40;4.20;;;;;;;14.56;67.56;98047.67;105523;1254;102223;-69
2023/03/31 09:44:51;;;;;;;11.40;4.70;;;;;;;14.49;68.09;98044.44;105247;1266;107264;-70
2023/03/31 09:47:28;;;;;;;12.20;4.50;;;;;;;14.44;68.00;98042.13;105444;1254;97537;-69
2023/03/31 09:49:57;;;;;;;11.10;4.60;;;;;;;14.43;67.91;98040.85;105379;1250;97903;-68
2023/03/31 09:52:27;;;;;;;15.20;5.50;;;;;;;14.43;68.09;98034.77;105535;1254;109913;-68
2023/03/31 09:54:59;;;;;;;13.80;5.70;;;;;;;14.38;67.86;98029.39;105467;1254;100497;-68
2023/03/31 09:57:33;;;;;;;12.70;5.20;;;;;;;14.28;67.90;98027.27;105338;1251;107621;-69
2023/03/31 10:00:15;;;;;;;11.50;5.20;;;;;;;14.12;67.62;98024.58;105417;1254;97940;-69
2023/03/31 10:02:50;;;;;;;13.50;5.20;;;;;;;13.99;67.47;98026.66;105625;1250;98436;-72
2023/03/31 10:05:35;;;;;;;13.40;5.20;;;;;;;13.89;67.23;98027.48;105282;1256;110861;-69
2023/03/31 10:08:16;;;;;;;13.00;5.00;;;;;;;13.80;67.49;98019.54;105234;1254;101989;-69
2023/03/31 10:11:10;;;;;;;12.90;5.10;;;;;;;13.66;67.37;98012.52;105333;1254;107232;-69
2023/03/31 10:13:38;;;;;;;;;;;;;;;13.60;67.43;98005.02;105437;1254;97931;-69
2023/03/31 10:16:11;;;;;;;19.30;6.50;;;;;;;13.60;67.51;98000.38;105450;1253;98421;-69
2023/03/31 10:18:42;;;;;;;11.50;4.40;;;;;;;13.71;67.47;98000.66;105231;1256;111185;-71
2023/03/31 10:21:34;;;;;;;12.80;4.90;;;;;;;13.79;67.25;97995.94;105494;1251;101866;-70
2023/03/31 10:24:08;;;;;;;10.80;4.20;;;;;;;13.95;67.20;97991.27;105327;1251;107642;-70
2023/03/31 10:26:38;;;;;;;10.20;4.40;;;;;;;14.06;67.12;97982.83;105370;1254;98019;-68
2023/03/31 10:29:12;;;;;;;10.90;4.20;;;;;;;14.14;67.23;97978.25;105346;1250;98392;-70
2023/03/31 10:31:41;;;;;;;11.40;4.80;;;;;;;14.30;67.14;97974.97;105503;1250;110112;-68
2023/03/31 10:34:15;;;;;;;12.60;4.90;;;;;;;14.45;67.04;97972.09;105312;1251;102193;-70
2023/03/31 10:36:50;;;;;;;11.00;4.30;;;;;;;14.56;67.09;97966.10;105476;1254;107035;-69
2023/03/31 10:39:19;;;;;;;8.80;3.50;;;;;;;14.61;66.92;97965.41;105446;1255;97968;-69
2023/03/31 10:41:50;;;;;;;11.20;4.50;;;;;;;14.63;66.91;97967.05;105453;1254;98427;-69
2023/03/31 10:44:33;;;;;;;10.80;4.50;;;;;;;14.65;66.58;97967.16;105426;1251;109834;-68
2023/03/31 10:47:05;;;;;;;14.90;4.70;;;;;;;14.67;66.48;97962.31;105423;1264;102366;-69
2023/03/31 10:49:39;;;;;;;16.70;6.00;;;;;;;14.82;66.49;97951.06;105415;1255;106581;-70
2023/03/31 10:52:18;;;;;;;12.30;4.50;;;;;;;15.03;66.54;97942.01;105420;1251;98868;-69
2023/03/31 10:54:49;;;;;;;16.20;4.20;;;;;;;15.26;66.60;97937.63;105288;1250;98759;-68
2023/03/31 10:57:19;;;;;;;13.10;4.20;;;;;;;15.42;66.58;97933.90;105470;1254;109840;-69
2023/03/31 11:00:04;;;;;;;11.60;4.50;;;;;;;15.51;66.05;97935.34;105384;1254;102435;-69
2023/03/31 11:02:39;;;;;;;11.20;4.30;;;;;;;15.52;66.04;97934.36;105225;1267;105832;-68
2023/03/31 11:05:29;;;;;;;8.10;3.50;;;;;;;15.46;65.96;97931.23;105207;1254;98104;-69
2023/03/31 11:08:35;;;;;;;10.10;4.00;;;;;;;15.39;65.56;97930.11;105373;1251;98552;-69
2023/03/31 11:11:03;;;;;;;10.10;3.60;;;;;;;15.32;65.62;97928.75;105347;1252;111276;-68
2023/03/31 11:13:58;;;;;;;7.00;3.20;;;;;;;15.30;65.67;97927.02;105378;1254;102415;-69
2023/03/31 11:16:37;;;;;;;;;;;;;;;15.22;65.50;97920.70;105344;1256;107550;-74
2023/03/31 11:19:52;;;;;;;16.00;5.90;;;;;;;15.14;65.31;97923.69;105543;1251;98871;-69
2023/03/31 11:22:30;;;;;;;24.60;4.90;;;;;;;14.95;65.18;97921.62;105346;1251;98434;-68
2023/03/31 11:25:09;;;;;;;13.70;4.80;;;;;;;14.79;65.11;97918.55;105270;1257;111221;-69
2023/03/31 11:28:09;;;;;;;14.80;4.70;;;;;;;14.73;65.29;97917.80;105282;1257;102225;-70
2023/03/31 11:31:12;;;;;;;11.80;4.90;;;;;;;14.77;65.17;97915.63;105336;1255;107599;-69
2023/03/31 11:34:07;;;;;;;12.20;4.80;;;;;;;14.72;64.91;97912.73;105386;1254;97936;-69
2023/03/31 11:36:41;;;;;;;11.00;4.30;;;;;;;14.60;64.75;97912.69;105612;1251;98743;-70
2023/03/31 11:39:28;;;;;;;9.50;4.00;;;;;;;14.45;64.72;97911.80;105464;1251;110744;-68
2023/03/31 11:42:24;;;;;;;12.20;4.20;;;;;;;14.27;64.69;97909.69;105169;1254;102234;-70
2023/03/31 11:44:59;;;;;;;15.80;5.20;;;;;;;14.06;64.65;97902.58;105237;1251;107249;-72